createdAt,value
2022-10-23T00:00:34.616Z,100764.56
2022-10-23T00:03:37.107Z,100751.78
2022-10-23T00:06:39.876Z,100760.50
2022-10-23T00:09:42.378Z,100751.41
2022-10-23T00:12:45.172Z,100762.47
2022-10-23T00:15:47.780Z,100765.06
2022-10-23T00:18:50.155Z,100772.84
2022-10-23T00:21:52.570Z,100769.38
2022-10-23T00:24:54.920Z,100782.56
2022-10-23T00:27:57.279Z,100786.06
2022-10-23T00:31:03.146Z,100797.16
2022-10-23T00:34:08.389Z,100798.22
2022-10-23T00:37:11.262Z,100804.22
2022-10-23T00:40:13.780Z,100804.22
2022-10-23T00:43:22.506Z,100802.59
2022-10-23T00:46:25.065Z,100794.06
2022-10-23T00:49:28.349Z,100799.38
2022-10-23T00:52:31.047Z,100792.47
2022-10-23T00:55:34.110Z,100793.13
2022-10-23T00:58:36.858Z,100788.91
2022-10-23T01:01:39.944Z,100790.09
2022-10-23T01:04:42.923Z,100804.78
2022-10-23T01:08:05.238Z,100800.28
2022-10-23T01:11:22.248Z,100795.03
2022-10-23T01:15:10.466Z,100807.69
2022-10-23T01:18:35.111Z,100814.47
2022-10-23T01:21:37.459Z,100796.97
2022-10-23T01:24:56.663Z,100797.16
2022-10-23T01:28:09.378Z,100797.16
2022-10-23T01:31:18.060Z,100787.19
2022-10-23T01:34:29.618Z,100795.34
2022-10-23T01:37:58.613Z,100794.72
2022-10-23T01:41:07.602Z,100795.72
2022-10-23T01:44:27.891Z,100797.59
2022-10-23T01:47:34.085Z,100810.03
2022-10-23T01:50:43.555Z,100810.47
2022-10-23T01:53:49.388Z,100813.66
2022-10-23T01:56:53.079Z,100820.94
2022-10-23T02:00:05.848Z,100818.75
2022-10-23T02:03:13.792Z,100821.91
2022-10-23T02:06:16.938Z,100838.75
2022-10-23T02:09:19.492Z,100834.69
2022-10-23T02:12:40.691Z,100854.53
2022-10-23T02:15:53.612Z,100850.25
2022-10-23T02:18:59.285Z,100859.19
2022-10-23T02:22:10.327Z,100864.66
2022-10-23T02:25:21.974Z,100860.66
2022-10-23T02:28:28.933Z,100856.47
2022-10-23T02:31:34.799Z,100853.44
2022-10-23T02:34:37.482Z,100862.22
2022-10-23T02:37:40.415Z,100862.09
2022-10-23T02:40:46.046Z,100872.94
2022-10-23T02:43:59.768Z,100870.31
2022-10-23T02:47:11.347Z,100877.78
2022-10-23T02:50:35.393Z,100884.06
2022-10-23T02:53:52.094Z,100888.97
2022-10-23T02:57:05.879Z,100886.56
2022-10-23T03:00:13.587Z,100902.06
2022-10-23T03:03:40.596Z,100909.44
2022-10-23T03:06:43.230Z,100910.66
2022-10-23T03:09:51.947Z,100908.25
2022-10-23T03:12:54.339Z,100924.13
2022-10-23T03:15:56.823Z,100928.22
2022-10-23T03:19:02.275Z,100934.72
2022-10-23T03:22:05.579Z,100941.00
2022-10-23T03:25:08.525Z,100956.41
2022-10-23T03:28:11.616Z,100959.34
2022-10-23T03:31:14.183Z,100959.16
2022-10-23T03:34:16.671Z,100959.81
2022-10-23T03:37:19.215Z,100964.25
2022-10-23T03:40:21.586Z,100964.16
2022-10-23T03:43:24.011Z,100970.31
2022-10-23T03:46:26.571Z,100969.31
2022-10-23T03:49:30.172Z,100973.03
2022-10-23T03:52:38.773Z,100971.84
2022-10-23T03:55:41.263Z,100973.66
2022-10-23T03:58:43.795Z,100979.03
2022-10-23T04:01:46.792Z,100982.00
2022-10-23T04:04:49.299Z,100982.44
2022-10-23T04:07:51.792Z,100977.34
2022-10-23T04:10:55.035Z,100979.06
2022-10-23T04:14:07.288Z,100987.19
2022-10-23T04:17:13.430Z,100995.03
2022-10-23T04:20:16.011Z,100990.66
2022-10-23T04:23:18.571Z,100986.06
2022-10-23T04:26:22.156Z,100986.91
2022-10-23T04:29:24.816Z,100986.50
2022-10-23T04:32:27.314Z,100986.56
2022-10-23T04:35:29.948Z,100990.69
2022-10-23T04:38:32.633Z,100990.63
2022-10-23T04:41:38.845Z,100999.19
2022-10-23T04:44:41.530Z,100998.22
2022-10-23T04:47:44.044Z,101008.50
2022-10-23T04:50:56.391Z,101007.72
2022-10-23T04:54:21.360Z,101018.25
2022-10-23T04:57:38.059Z,101015.88
2022-10-23T05:00:43.059Z,101019.44
2022-10-23T05:03:45.464Z,101017.28
2022-10-23T05:06:48.469Z,101023.38
2022-10-23T05:10:12.661Z,101021.56
2022-10-23T05:13:30.920Z,101034.53
2022-10-23T05:16:48.338Z,101032.91
2022-10-23T05:19:56.331Z,101034.38
2022-10-23T05:23:00.736Z,101046.13
2022-10-23T05:26:05.055Z,101041.63
2022-10-23T05:29:07.889Z,101044.84
2022-10-23T05:32:15.179Z,101043.28
2022-10-23T05:35:23.202Z,101041.59
2022-10-23T05:38:29.299Z,101053.69
2022-10-23T05:41:31.971Z,101054.66
2022-10-23T05:44:35.446Z,101065.78
2022-10-23T05:48:05.812Z,101063.19
2022-10-23T05:52:01.078Z,101064.16
2022-10-23T05:55:26.709Z,101066.75
2022-10-23T05:58:52.227Z,101061.41
2022-10-23T06:02:23.858Z,101074.00
2022-10-23T06:05:32.610Z,101081.56
2022-10-23T06:08:59.503Z,101078.91
2022-10-23T06:12:02.837Z,101081.97
2022-10-23T06:15:07.875Z,101078.97
2022-10-23T06:18:30.103Z,101082.44
2022-10-23T06:21:41.380Z,101090.53
2022-10-23T06:24:46.129Z,101084.88
2022-10-23T06:27:54.976Z,101090.28
2022-10-23T06:30:59.132Z,101098.94
2022-10-23T06:34:01.913Z,101100.19
2022-10-23T06:37:06.297Z,101091.81
2022-10-23T06:40:20.098Z,101110.81
2022-10-23T06:43:50.319Z,101123.53
2022-10-23T06:47:02.389Z,101125.66
2022-10-23T06:50:43.005Z,101125.81
2022-10-23T06:53:52.798Z,101132.09
2022-10-23T06:57:34.155Z,101125.91
2022-10-23T07:00:40.194Z,101137.25
2022-10-23T07:03:42.644Z,101139.53
2022-10-23T07:06:45.257Z,101137.91
2022-10-23T07:09:47.700Z,101147.56
2022-10-23T07:13:00.875Z,101151.81
2022-10-23T07:16:19.622Z,101153.28
2022-10-23T07:19:22.083Z,101164.00
2022-10-23T07:22:36.682Z,101154.00
2022-10-23T07:25:46.338Z,101154.34
2022-10-23T07:28:56.274Z,101151.22
2022-10-23T07:32:01.006Z,101144.66
2022-10-23T07:35:35.568Z,101143.91
2022-10-23T07:38:45.392Z,101144.38
2022-10-23T07:41:48.039Z,101135.03
2022-10-23T07:44:50.480Z,101138.81
2022-10-23T07:47:53.131Z,101140.91
2022-10-23T07:51:01.495Z,101144.72
2022-10-23T07:54:04.339Z,101153.53
2022-10-23T07:57:35.616Z,101150.28
2022-10-23T08:00:52.024Z,101143.50
2022-10-23T08:04:02.345Z,101157.88
2022-10-23T08:07:05.752Z,101155.75
2022-10-23T08:10:13.888Z,101158.00
2022-10-23T08:13:22.279Z,101158.66
2022-10-23T08:16:35.430Z,101163.44
2022-10-23T08:19:46.461Z,101168.88
2022-10-23T08:22:51.444Z,101168.84
2022-10-23T08:26:00.517Z,101170.28
2022-10-23T08:29:05.841Z,101171.59
2022-10-23T08:32:08.252Z,101177.66
2022-10-23T08:35:23.860Z,101188.59
2022-10-23T08:38:26.483Z,101185.59
2022-10-23T08:41:38.363Z,101187.94
2022-10-23T08:44:55.331Z,101179.09
2022-10-23T08:48:06.706Z,101165.81
2022-10-23T08:51:35.954Z,101162.38
2022-10-23T08:55:17.315Z,101170.50
2022-10-23T08:58:32.017Z,101167.75
2022-10-23T09:01:42.013Z,101158.81
2022-10-23T09:04:47.763Z,101159.72
2022-10-23T09:08:08.998Z,101159.88
2022-10-23T09:11:20.723Z,101154.44
2022-10-23T09:14:57.238Z,101166.66
2022-10-23T09:18:07.839Z,101172.56
2022-10-23T09:21:10.792Z,101182.69
2022-10-23T09:24:17.798Z,101179.19
2022-10-23T09:27:20.590Z,101176.28
2022-10-23T09:30:42.841Z,101171.94
2022-10-23T09:33:57.500Z,101176.38
2022-10-23T09:37:17.455Z,101184.69
2022-10-23T09:40:30.128Z,101181.72
2022-10-23T09:43:32.696Z,101188.28
2022-10-23T09:47:12.060Z,101192.09
2022-10-23T09:50:20.786Z,101194.91
2022-10-23T09:53:26.269Z,101194.09
2022-10-23T09:56:34.077Z,101198.97
2022-10-23T09:59:36.443Z,101202.22
2022-10-23T10:02:38.912Z,101199.25
2022-10-23T10:06:04.113Z,101187.06
2022-10-23T10:09:15.515Z,101188.66
2022-10-23T10:12:37.564Z,101188.28
2022-10-23T10:15:50.707Z,101190.06
2022-10-23T10:19:02.183Z,101189.22
2022-10-23T10:22:10.549Z,101185.50
2022-10-23T10:25:22.045Z,101177.38
2022-10-23T10:28:43.175Z,101176.56
2022-10-23T10:32:11.978Z,101179.47
2022-10-23T10:35:25.508Z,101183.19
2022-10-23T10:38:50.016Z,101187.59
2022-10-23T10:41:58.606Z,101180.81
2022-10-23T10:45:01.622Z,101181.78
2022-10-23T10:48:19.201Z,101182.75
2022-10-23T10:52:28.708Z,101183.53
2022-10-23T10:55:39.454Z,101181.94
2022-10-23T10:58:48.281Z,101174.38
2022-10-23T11:01:59.926Z,101177.06
2022-10-23T11:05:14.158Z,101171.25
2022-10-23T11:08:22.427Z,101173.09
2022-10-23T11:11:32.099Z,101168.66
2022-10-23T11:14:35.241Z,101167.25
2022-10-23T11:17:44.128Z,101174.81
2022-10-23T11:20:46.728Z,101169.66
2022-10-23T11:24:16.972Z,101163.38
2022-10-23T11:27:30.634Z,101162.75
2022-10-23T11:30:40.274Z,101157.66
2022-10-23T11:34:14.642Z,101152.72
2022-10-23T11:37:22.236Z,101144.41
2022-10-23T11:40:25.712Z,101148.13
2022-10-23T11:43:31.347Z,101152.47
2022-10-23T11:46:36.807Z,101144.16
2022-10-23T11:49:39.233Z,101141.88
2022-10-23T11:53:46.537Z,101142.47
2022-10-23T11:57:10.436Z,101139.16
2022-10-23T12:00:23.446Z,101142.13
2022-10-23T12:03:32.385Z,101132.88
2022-10-23T12:06:45.267Z,101128.75
2022-10-23T12:10:01.932Z,101129.69
2022-10-23T12:13:06.467Z,101124.69
2022-10-23T12:16:08.882Z,101110.16
2022-10-23T12:19:20.857Z,101119.38
2022-10-23T12:22:28.137Z,101112.75
2022-10-23T12:25:58.279Z,101113.25
2022-10-23T12:29:25.566Z,101113.75
2022-10-23T12:32:34.167Z,101100.00
2022-10-23T12:36:07.942Z,101090.53
2022-10-23T12:39:29.545Z,101088.94
2022-10-23T12:42:32.030Z,101082.97
2022-10-23T12:45:40.068Z,101083.34
2022-10-23T12:48:50.586Z,101078.03
2022-10-23T12:51:57.490Z,101085.22
2022-10-23T12:55:00.741Z,101080.09
2022-10-23T12:58:03.080Z,101077.94
2022-10-23T13:01:06.898Z,101076.38
2022-10-23T13:04:24.399Z,101078.41
2022-10-23T13:07:29.751Z,101072.84
2022-10-23T13:10:35.060Z,101066.31
2022-10-23T13:13:41.773Z,101060.72
2022-10-23T13:16:44.122Z,101061.56
2022-10-23T13:19:50.204Z,101054.03
2022-10-23T13:23:07.707Z,101058.22
2022-10-23T13:26:30.934Z,101053.66
2022-10-23T13:29:34.702Z,101048.00
2022-10-23T13:32:37.055Z,101048.53
2022-10-23T13:35:39.386Z,101047.81
2022-10-23T13:38:44.117Z,101046.88
2022-10-23T13:41:48.703Z,101048.72
2022-10-23T13:44:53.139Z,101048.47
2022-10-23T13:47:59.207Z,101044.00
2022-10-23T13:51:22.248Z,101053.19
2022-10-23T13:57:35.189Z,101038.91
2022-10-23T14:00:38.737Z,101037.34
2022-10-23T14:03:41.067Z,101041.34
2022-10-23T14:06:43.945Z,101037.97
2022-10-23T14:09:46.343Z,101046.72
2022-10-23T14:12:53.513Z,101038.47
2022-10-23T14:15:56.342Z,101046.66
2022-10-23T14:18:59.197Z,101043.19
2022-10-23T14:22:01.545Z,101038.84
2022-10-23T14:25:05.015Z,101047.00
2022-10-23T14:28:07.625Z,101045.19
2022-10-23T14:31:15.750Z,101040.72
2022-10-23T14:34:18.312Z,101039.78
2022-10-23T14:37:21.423Z,101036.00
2022-10-23T14:40:24.128Z,101032.38
2022-10-23T14:43:26.715Z,101026.44
2022-10-23T14:46:29.525Z,101032.72
2022-10-23T14:49:32.414Z,101037.88
2022-10-23T14:52:34.898Z,101035.34
2022-10-23T14:55:37.639Z,101034.78
2022-10-23T14:58:40.172Z,101035.34
2022-10-23T15:01:45.798Z,101032.09
2022-10-23T15:04:50.409Z,101038.72
2022-10-23T15:07:52.802Z,101038.22
2022-10-23T15:11:00.319Z,101037.78
2022-10-23T15:14:02.988Z,101038.22
2022-10-23T15:17:05.426Z,101033.59
2022-10-23T15:20:08.834Z,101043.25
2022-10-23T15:23:12.787Z,101038.91
2022-10-23T15:26:23.179Z,101044.19
2022-10-23T15:29:25.724Z,101046.19
2022-10-23T15:32:29.394Z,101042.66
2022-10-23T15:35:32.090Z,101047.28
2022-10-23T15:38:34.475Z,101044.84
2022-10-23T15:41:39.196Z,101048.28
2022-10-23T15:44:41.775Z,101039.66
2022-10-23T15:47:44.711Z,101040.31
2022-10-23T15:50:47.289Z,101042.25
2022-10-23T15:53:49.752Z,101044.22
2022-10-23T15:56:54.251Z,101042.66
2022-10-23T15:59:57.227Z,101051.66
2022-10-23T16:02:59.595Z,101053.44
2022-10-23T16:06:13.766Z,101054.31
2022-10-23T16:09:16.839Z,101056.31
2022-10-23T16:12:19.792Z,101052.72
2022-10-23T16:15:22.195Z,101055.53
2022-10-23T16:18:24.643Z,101057.44
2022-10-23T16:21:30.475Z,101065.16
2022-10-23T16:24:33.469Z,101062.03
2022-10-23T16:27:35.832Z,101051.50
2022-10-23T16:30:42.441Z,101056.56
2022-10-23T16:33:44.903Z,101055.28
2022-10-23T16:36:47.421Z,101062.63
2022-10-23T16:40:16.347Z,101061.03
2022-10-23T16:43:51.144Z,101061.66
2022-10-23T16:47:13.768Z,101062.78
2022-10-23T16:50:17.508Z,101067.72
2022-10-23T16:53:20.184Z,101061.25
2022-10-23T16:56:31.306Z,101074.16
2022-10-23T16:59:33.987Z,101073.53
2022-10-23T17:02:37.496Z,101079.75
2022-10-23T17:05:40.223Z,101078.75
2022-10-23T17:08:43.318Z,101083.78
2022-10-23T17:11:46.477Z,101085.09
2022-10-23T17:14:49.261Z,101082.78
2022-10-23T17:17:51.845Z,101093.09
2022-10-23T17:20:58.131Z,101094.16
2022-10-23T17:27:09.723Z,101087.91
2022-10-23T17:30:12.949Z,101094.84
2022-10-23T17:33:16.055Z,101092.25
2022-10-23T17:36:20.687Z,101104.41
2022-10-23T17:39:26.403Z,101090.81
2022-10-23T17:42:29.499Z,101098.13
2022-10-23T17:45:34.824Z,101108.63
2022-10-23T17:48:39.558Z,101114.66
2022-10-23T17:51:42.151Z,101115.72
2022-10-23T17:54:44.862Z,101124.41
2022-10-23T17:57:52.951Z,101111.44
2022-10-23T18:00:55.556Z,101108.25
2022-10-23T18:04:01.907Z,101119.00
2022-10-23T18:07:05.522Z,101120.63
2022-10-23T18:10:08.218Z,101120.16
2022-10-23T18:13:11.137Z,101121.22
2022-10-23T18:16:14.383Z,101126.50
2022-10-23T18:19:18.490Z,101128.94
2022-10-23T18:22:21.659Z,101122.91
2022-10-23T18:25:24.310Z,101120.00
2022-10-23T18:28:28.146Z,101118.72
2022-10-23T18:31:31.043Z,101111.91
2022-10-23T18:34:33.707Z,101113.81
2022-10-23T18:37:41.217Z,101099.94
2022-10-23T18:40:44.812Z,101100.31
2022-10-23T18:43:47.470Z,101095.25
2022-10-23T18:46:51.748Z,101096.31
2022-10-23T18:49:54.538Z,101105.16
2022-10-23T18:52:57.372Z,101102.75
2022-10-23T18:56:00.802Z,101096.63
2022-10-23T18:59:06.290Z,101096.38
2022-10-23T19:02:10.843Z,101087.00
2022-10-23T19:05:13.785Z,101094.19
2022-10-23T19:08:16.491Z,101094.97
2022-10-23T19:11:22.978Z,101089.91
2022-10-23T19:14:28.680Z,101092.22
2022-10-23T19:17:32.717Z,101084.25
2022-10-23T19:20:36.051Z,101081.13
2022-10-23T19:23:41.036Z,101073.56
2022-10-23T19:26:44.121Z,101074.97
2022-10-23T19:29:50.246Z,101067.06
2022-10-23T19:32:53.031Z,101064.47
2022-10-23T19:35:55.618Z,101062.78
2022-10-23T19:38:58.294Z,101066.84
2022-10-23T19:42:01.037Z,101066.34
2022-10-23T19:45:05.799Z,101072.56
2022-10-23T19:48:08.466Z,101082.31
2022-10-23T19:51:13.176Z,101082.22
2022-10-23T19:54:15.830Z,101088.09
2022-10-23T19:57:22.478Z,101081.91
2022-10-23T20:00:28.083Z,101078.94
2022-10-23T20:03:30.684Z,101087.75
2022-10-23T20:06:34.825Z,101086.81
2022-10-23T20:09:38.020Z,101093.06
2022-10-23T20:12:44.494Z,101086.63
2022-10-23T20:15:54.355Z,101083.84
2022-10-23T20:18:57.734Z,101092.25
2022-10-23T20:22:00.714Z,101094.44
2022-10-23T20:25:03.895Z,101099.47
2022-10-23T20:28:08.227Z,101086.19
2022-10-23T20:31:15.015Z,101086.34
2022-10-23T20:34:19.101Z,101077.56
2022-10-23T20:37:21.698Z,101081.56
2022-10-23T20:40:24.355Z,101082.75
2022-10-23T20:43:27.451Z,101066.19
2022-10-23T20:46:30.406Z,101076.16
2022-10-23T20:49:33.174Z,101062.63
2022-10-23T20:52:35.558Z,101061.03
2022-10-23T20:55:42.672Z,101072.19
2022-10-23T20:58:45.462Z,101055.66
2022-10-23T21:01:52.887Z,101059.00
2022-10-23T21:04:55.580Z,101060.53
2022-10-23T21:07:57.962Z,101049.47
2022-10-23T21:11:00.816Z,101059.50
2022-10-23T21:14:03.747Z,101063.63
2022-10-23T21:17:06.334Z,101067.94
2022-10-23T21:20:09.207Z,101064.84
2022-10-23T21:23:11.566Z,101059.25
2022-10-23T21:26:15.183Z,101065.31
2022-10-23T21:29:19.128Z,101062.38
2022-10-23T21:32:22.171Z,101063.91
2022-10-23T21:35:26.547Z,101057.72
2022-10-23T21:38:32.056Z,101055.91
2022-10-23T21:41:34.522Z,101059.97
2022-10-23T21:44:41.994Z,101071.47
2022-10-23T21:47:44.530Z,101073.06
2022-10-23T21:50:47.191Z,101064.31
2022-10-23T21:53:51.526Z,101061.56
2022-10-23T21:56:54.237Z,101063.25
2022-10-23T21:59:56.783Z,101062.19
2022-10-23T22:02:59.136Z,101069.84
2022-10-23T22:06:01.571Z,101067.94
2022-10-23T22:09:05.055Z,101066.84
2022-10-23T22:12:12.255Z,101058.38
2022-10-23T22:15:14.688Z,101059.84
2022-10-23T22:18:17.039Z,101058.16
2022-10-23T22:21:26.156Z,101056.25
2022-10-23T22:24:28.554Z,101051.13
2022-10-23T22:27:30.922Z,101050.28
2022-10-23T22:30:36.735Z,101046.63
2022-10-23T22:33:39.071Z,101036.31
2022-10-23T22:36:41.493Z,101037.66
2022-10-23T22:39:43.893Z,101054.38
2022-10-23T22:42:46.956Z,101053.38
2022-10-23T22:45:49.429Z,101041.19
2022-10-23T22:48:52.544Z,101036.53
2022-10-23T22:51:55.061Z,101042.84
2022-10-23T22:54:57.530Z,101041.75
2022-10-23T22:57:59.972Z,101037.13
2022-10-23T23:01:04.736Z,101029.44
2022-10-23T23:04:19.581Z,101026.69
2022-10-23T23:07:29.764Z,101032.09
2022-10-23T23:10:32.207Z,101040.09
2022-10-23T23:13:35.264Z,101042.47
2022-10-23T23:16:37.694Z,101032.31
2022-10-23T23:19:40.220Z,101030.19
2022-10-23T23:22:42.803Z,101020.22
2022-10-23T23:25:48.300Z,101019.78
2022-10-23T23:28:55.155Z,101024.16
2022-10-23T23:31:58.129Z,101023.97
2022-10-23T23:35:01.082Z,101018.09
2022-10-23T23:38:07.673Z,101032.53
2022-10-23T23:41:15.259Z,101039.13
2022-10-23T23:44:17.629Z,101041.34
2022-10-23T23:47:20.127Z,101033.31
2022-10-23T23:50:22.762Z,101036.81
2022-10-23T23:53:25.220Z,101052.13
2022-10-23T23:56:28.121Z,101049.53
2022-10-23T23:59:30.475Z,101048.50
